Latest Coastal Weather Observations for McCluer Island

IDD60701

Issued at 8:41 pm CST Saturday 25 April 2015 (issued every 10 minutes, with the page automatically refreshed every 10 minutes)

About coastal observations | Map of coastal stations | Coastal observations for NT | Marine services | Other Formats
Station Details ID: 014274 Name: MCCLUER ISLAND Lat: -11.05 Lon: 132.98 Height: 1.4 m
Data from the previous 72 hours. | See also: Recent months at McCluer Island
Date/Time
CST
Temp

°C
Wind Pressure Rain
since 9am
mm
Weather Cloud Vis
km
Sea
Height
m
Swell
Dir
 
Speed
knots
Gust
knots
hPa Trend Height
m
Period
s
Dir
25/08:30pm 29.0 E 15 17 1010.7 - 0.0 - - - - - - -
25/08:00pm 29.0 E 14 17 1010.3 - 0.0 - - - - - - -
25/07:30pm 29.1 E 15 17 1009.9 - 0.0 - - - - - - -
25/07:00pm 29.0 E 15 17 1009.7 - 0.0 - - - - - - -
25/06:30pm 29.0 E 14 16 1009.4 - 0.0 - - - - - - -
25/06:00pm 29.1 E 14 16 1009.2 - 0.0 - - - - - - -
25/05:30pm 29.2 E 13 16 1009.1 - 0.0 - - - - - - -
25/05:00pm 29.4 E 13 16 1008.9 - 0.0 - - - - - - -
25/04:30pm 29.7 ESE 13 15 1008.5 - 0.0 - - - - - - -
25/04:00pm 29.5 E 12 15 1008.7 - 0.0 - - - - - - -
25/03:30pm 29.6 E 11 13 1008.7 - 0.0 - - - - - - -
25/03:00pm 29.5 E 11 14 1008.8 - 0.0 - - - - - - -
25/02:30pm 29.7 E 11 13 1009.1 - 0.0 - - - - - - -
25/02:00pm 29.7 ESE 10 11 1009.3 - 0.0 - - - - - - -
25/01:30pm 29.8 ESE 10 12 1009.6 - 0.0 - - - - - - -
25/01:00pm 29.5 ESE 10 13 1010.0 - 0.0 - - - - - - -
25/12:30pm 29.9 ESE 11 13 1010.3 - 0.0 - - - - - - -
25/12:00pm 29.8 E 10 12 1010.7 - 0.0 - - - - - - -
25/11:30am 29.9 E 10 15 1011.0 - 0.0 - - - - - - -
25/11:00am 29.9 E 11 13 1011.2 - 0.0 - - - - - - -
25/10:30am 29.4 E 10 12 1011.1 - 0.0 - - - - - - -
25/10:00am 29.4 E 10 12 1011.2 - 0.0 - - - - - - -
25/09:30am 29.4 E 9 11 1011.0 - 0.0 - - - - - - -
25/09:00am 29.0 ESE 9 11 1010.7 - 0.0 - - - - - - -
25/08:30am 29.0 E 11 14 1010.5 - 0.0 - - - - - - -
25/08:00am 28.6 E 11 13 1010.1 - 0.0 - - - - - - -
25/07:30am 27.7 ESE 11 13 1010.0 - 0.0 - - - - - - -
25/07:00am 26.8 SE 10 13 1009.8 - 0.0 - - - - - - -
25/06:30am 26.6 SE 9 11 1009.6 - 0.0 - - - - - - -
25/06:00am 27.6 ESE 14 19 1009.4 - 0.0 - - - - - - -
25/05:30am 28.0 E 14 16 1009.5 - 0.0 - - - - - - -
25/05:00am 28.1 E 13 16 1009.5 - 0.0 - - - - - - -
25/04:30am 28.3 E 12 14 1009.5 - 0.0 - - - - - - -
25/04:00am 28.3 E 12 15 1009.6 - 0.0 - - - - - - -
25/03:30am 28.4 E 12 14 1009.7 - 0.0 - - - - - - -
25/03:00am 28.6 E 11 13 1009.7 - 0.0 - - - - - - -
25/02:30am 28.4 E 9 13 1009.7 - 0.0 - - - - - - -
25/02:00am 27.9 E 8 10 1009.9 - 0.0 - - - - - - -
25/01:30am 27.4 E 8 9 1009.9 - 0.0 - - - - - - -
25/01:00am 28.7 E 9 11 1010.0 - 0.0 - - - - - - -
25/12:30am 28.7 E 9 10 1010.2 - 0.0 - - - - - - -
25/12:00am 28.8 E 9 12 1010.2 - 0.0 - - - - - - -
 
Date/Time
CST
Temp

°C
Wind Pressure Rain
since 9am
mm
Weather Cloud Vis
km
Sea
Height
m
Swell
Dir
 
Speed
knots
Gust
knots
hPa Trend Height
m
Period
s
Dir
24/11:30pm 28.9 E 10 11 1010.4 - 0.0 - - - - - - -
24/11:00pm 29.0 E 11 12 1010.3 - 0.0 - - - - - - -
24/10:30pm 29.2 E 11 12 1010.4 - 0.0 - - - - - - -
24/10:00pm 29.3 ENE 12 14 1010.5 - 0.0 - - - - - - -
24/09:30pm 29.2 E 12 14 1010.3 - 0.0 - - - - - - -
24/09:00pm 29.4 E 13 15 1010.1 - 0.0 - - - - - - -
24/08:30pm 29.4 ENE 13 16 1010.0 - 0.0 - - - - - - -
24/08:00pm 29.3 ENE 14 15 1009.6 - 0.0 - - - - - - -
24/07:30pm 29.4 E 14 16 1009.2 - 0.0 - - - - - - -
24/07:00pm 29.3 ENE 14 16 1009.0 - 0.0 - - - - - - -
24/06:30pm 29.3 E 14 17 1008.6 - 0.0 - - - - - - -
24/06:00pm 29.5 E 14 16 1008.4 - 0.0 - - - - - - -
24/05:30pm 29.3 E 14 16 1008.1 - 0.0 - - - - - - -
24/05:00pm 29.5 E 13 15 1007.9 - 0.0 - - - - - - -
24/04:30pm 29.6 E 11 14 1007.8 - 0.0 - - - - - - -
24/04:00pm 29.5 ESE 11 13 1007.9 - 0.0 - - - - - - -
24/03:30pm 30.0 ESE 11 14 1008.0 - 0.0 - - - - - - -
24/03:00pm 29.9 ESE 11 14 1008.0 - 0.0 - - - - - - -
24/02:30pm 30.0 E 12 14 1008.3 - 0.0 - - - - - - -
24/02:00pm 30.3 E 12 14 1008.7 - 0.0 - - - - - - -
24/01:30pm 30.0 E 11 13 1008.9 - 0.0 - - - - - - -
24/01:00pm 30.0 E 11 13 1009.3 - 0.0 - - - - - - -
24/12:30pm 30.0 E 11 13 1009.7 - 0.0 - - - - - - -
24/12:00pm 29.9 E 12 14 1010.0 - 0.0 - - - - - - -
24/11:30am 29.7 E 13 15 1010.5 - 0.0 - - - - - - -
24/11:00am 29.5 ESE 13 15 1010.8 - 0.0 - - - - - - -
24/10:30am 29.3 ESE 14 16 1010.9 - 0.0 - - - - - - -
24/10:00am 29.3 ESE 14 15 1011.1 - 0.0 - - - - - - -
24/09:30am 29.2 ESE 15 17 1011.1 - 0.0 - - - - - - -
24/09:00am 28.5 SE 12 16 1010.8 - 0.0 - - - - - - -
24/08:30am 28.3 ESE 9 12 1010.7 - 0.0 - - - - - - -
24/08:00am 28.2 ESE 11 14 1010.4 - 0.0 - - - - - - -
24/07:30am 27.3 ESE 10 13 1010.1 - 0.0 - - - - - - -
24/07:00am 27.0 ESE 14 21 1009.9 - 0.0 - - - - - - -
24/06:30am 28.2 E 11 13 1009.7 - 0.0 - - - - - - -
24/06:00am 28.3 E 10 12 1009.4 - 0.0 - - - - - - -
24/05:30am 28.2 E 10 12 1009.4 - 0.0 - - - - - - -
24/05:00am 28.2 E 9 11 1009.3 - 0.0 - - - - - - -
24/04:30am 28.1 E 9 11 1009.3 - 0.0 - - - - - - -
24/04:00am 28.1 E 8 9 1009.4 - 0.0 - - - - - - -
24/03:30am 28.3 E 7 8 1009.4 - 0.0 - - - - - - -
24/03:00am 28.3 ENE 7 8 1009.3 - 0.0 - - - - - - -
24/02:30am 28.4 ENE 6 7 1009.3 - 0.0 - - - - - - -
24/02:00am 28.6 ENE 7 8 1009.4 - 0.0 - - - - - - -
24/01:30am 28.5 NE 8 9 1009.4 - 0.0 - - - - - - -
24/01:00am 28.7 NE 9 10 1009.6 - 0.0 - - - - - - -
24/12:30am 29.0 ENE 8 10 1009.7 - 0.0 - - - - - - -
24/12:00am 29.2 ENE 9 10 1009.9 - 0.0 - - - - - - -
 
Date/Time
CST
Temp

°C
Wind Pressure Rain
since 9am
mm
Weather Cloud Vis
km
Sea
Height
m
Swell
Dir
 
Speed
knots
Gust
knots
hPa Trend Height
m
Period
s
Dir
23/11:30pm 29.0 ENE 10 11 1009.8 - 0.0 - - - - - - -
23/11:00pm 29.1 E 10 11 1010.1 - 0.0 - - - - - - -
23/10:30pm 28.9 ENE 11 12 1010.1 - 0.0 - - - - - - -
23/10:00pm 28.8 E 9 11 1010.4 - 0.0 - - - - - - -
23/09:30pm 28.8 E 11 12 1010.3 - 0.0 - - - - - - -
23/09:00pm 28.7 E 10 12 1010.2 - 0.0 - - - - - - -
23/08:30pm 28.7 E 10 12 1010.2 - 0.0 - - - - - - -
23/08:00pm 28.8 E 11 13 1009.9 - 0.0 - - - - - - -
23/07:30pm 28.7 E 10 12 1009.4 - 0.0 - - - - - - -
23/07:00pm 28.8 E 10 12 1009.3 - 0.0 - - - - - - -
23/06:30pm 29.0 E 10 12 1009.2 - 0.0 - - - - - - -
23/06:00pm 29.1 E 10 13 1008.9 - 0.0 - - - - - - -
23/05:30pm 29.4 E 12 14 1008.5 - 0.0 - - - - - - -
23/05:00pm 29.4 E 12 14 1008.3 - 0.0 - - - - - - -
23/04:30pm 29.7 E 13 15 1008.0 - 0.0 - - - - - - -
23/04:00pm 29.4 E 12 14 1008.0 - 0.0 - - - - - - -
23/03:30pm 29.8 E 12 14 1008.2 - 0.0 - - - - - - -
23/03:00pm 30.0 E 11 14 1008.3 - 0.0 - - - - - - -
23/02:30pm 30.0 E 11 13 1008.4 - 0.0 - - - - - - -
23/02:00pm 29.8 E 12 14 1008.6 - 0.0 - - - - - - -
23/01:30pm 30.0 E 11 13 1009.0 - 0.0 - - - - - - -
23/01:00pm 30.1 ESE 11 14 1009.4 - 0.0 - - - - - - -
23/12:30pm 29.8 E 12 13 1009.8 - 0.0 - - - - - - -
23/12:00pm 29.5 E 12 14 1010.1 - 0.0 - - - - - - -
23/11:30am 29.8 E 11 14 1010.4 - 0.0 - - - - - - -
23/11:00am 29.3 E 13 16 1010.6 - 0.0 - - - - - - -
23/10:30am 28.9 E 12 15 1010.7 - 0.0 - - - - - - -
23/10:00am 28.9 E 14 16 1010.8 - 0.0 - - - - - - -
23/09:30am 28.7 E 15 17 1010.8 - 0.0 - - - - - - -
23/09:00am 28.4 ESE 15 17 1010.8 - 20.8 - - - - - - -
23/08:30am 28.3 ESE 15 17 1010.5 - 20.8 - - - - - - -
23/08:00am 28.2 E 16 19 1010.1 - 20.8 - - - - - - -
23/07:30am 27.8 E 15 20 1009.8 - 20.8 - - - - - - -
23/07:00am 27.5 ESE 17 20 1009.3 - 20.8 - - - - - - -
23/06:30am 27.1 ESE 15 19 1009.1 - 20.8 - - - - - - -
23/06:00am 26.7 ESE 14 17 1008.8 - 20.8 - - - - - - -
23/05:30am 27.4 E 15 18 1008.7 - 20.8 - - - - - - -
23/05:00am 27.1 E 11 15 1008.7 - 20.8 - - - - - - -
23/04:30am 26.7 E 10 12 1008.6 - 20.8 - - - - - - -
23/04:00am 26.6 E 10 12 1008.7 - 20.8 - - - - - - -
23/03:30am 26.8 E 10 11 1009.1 - 20.6 - - - - - - -
23/03:00am 26.7 E 9 11 1009.5 - 20.0 - - - - - - -
23/02:30am 25.9 ESE 6 7 1009.9 - 20.0 - - - - - - -
23/02:00am 25.8 SSE 5 6 1010.0 - 20.0 - - - - - - -
23/01:30am 25.9 SSE 5 6 1010.2 - 20.0 - - - - - - -
23/01:00am 26.0 N 1 3 1011.0 - 20.0 - - - - - - -
23/12:30am 26.4 N 1 3 1011.2 - 20.0 - - - - - - -
23/12:00am 26.7 NE 5 6 1011.7 - 20.0 - - - - - - -
 
Date/Time
CST
Temp

°C
Wind Pressure Rain
since 9am
mm
Weather Cloud Vis
km
Sea
Height
m
Swell
Dir
 
Speed
knots
Gust
knots
hPa Trend Height
m
Period
s
Dir
22/11:30pm 26.5 N 7 8 1012.1 - 20.0 - - - - - - -
22/11:00pm 26.4 NE 7 10 1011.8 - 20.0 - - - - - - -
22/10:30pm 25.7 SSE 4 4 1011.9 - 20.0 - - - - - - -
22/10:00pm 25.6 SSE 6 8 1012.0 - 19.6 - - - - - - -
22/09:30pm 25.9 S 6 8 1012.1 - 19.6 - - - - - - -
22/09:00pm 26.0 SSW 7 8 1012.0 - 19.6 - - - - - - -

Other Formats:

Comma delimited format used in spreadsheet applications
http://www.bom.gov.au/fwo/IDD60701/IDD60701.94135.axf

JavaScript Object Notation format (JSON) in row-major order
http://www.bom.gov.au/fwo/IDD60701/IDD60701.94135.json